createdAt,value
2022-08-17T00:01:05.160Z,22.46
2022-08-17T00:03:42.241Z,22.45
2022-08-17T00:06:15.332Z,22.43
2022-08-17T00:11:32.511Z,22.40
2022-08-17T00:16:56.218Z,22.32
2022-08-17T00:19:31.859Z,22.29
2022-08-17T00:22:34.933Z,22.27
2022-08-17T00:25:08.071Z,22.27
2022-08-17T00:27:45.577Z,22.28
2022-08-17T00:30:15.577Z,22.31
2022-08-17T00:46:33.299Z,22.25
2022-08-17T00:54:33.373Z,22.22
2022-08-17T00:57:13.965Z,22.20
2022-08-17T00:59:51.116Z,22.16
2022-08-17T01:02:41.561Z,22.16
2022-08-17T01:05:18.630Z,22.09
2022-08-17T01:13:12.691Z,22.07
2022-08-17T01:15:50.521Z,22.01
2022-08-17T01:18:20.204Z,22.02
2022-08-17T01:20:54.249Z,22.03
2022-08-17T01:23:30.876Z,22.03
2022-08-17T01:26:05.365Z,22.04
2022-08-17T01:28:53.965Z,22.05
2022-08-17T01:34:11.904Z,22.01
2022-08-17T01:36:44.460Z,22.04
2022-08-17T01:39:22.773Z,22.08
2022-08-17T01:41:54.564Z,22.09
2022-08-17T01:44:26.052Z,22.09
2022-08-17T01:46:57.882Z,22.09
2022-08-17T01:49:29.396Z,22.03
2022-08-17T01:52:01.756Z,22.01
2022-08-17T01:54:32.462Z,21.97
2022-08-17T01:57:01.416Z,21.94
2022-08-17T01:59:30.588Z,21.90
2022-08-17T02:01:59.474Z,21.85
2022-08-17T02:04:27.814Z,21.81
2022-08-17T02:07:04.681Z,21.79
2022-08-17T02:12:39.362Z,21.73
2022-08-17T02:15:04.425Z,21.72
2022-08-17T02:20:12.875Z,21.67
2022-08-17T02:22:57.744Z,21.69
2022-08-17T02:25:37.538Z,21.69
2022-08-17T02:28:13.465Z,21.69
2022-08-17T02:31:02.254Z,21.70
2022-08-17T02:33:41.693Z,21.68
2022-08-17T02:36:14.829Z,21.70
2022-08-17T02:38:54.029Z,21.71
2022-08-17T02:47:15.680Z,21.75
2022-08-17T02:55:05.061Z,21.93
2022-08-17T02:57:44.833Z,22.00
2022-08-17T03:00:30.113Z,22.17
2022-08-17T03:03:01.071Z,22.25
2022-08-17T03:05:32.327Z,22.36
2022-08-17T03:08:02.682Z,22.45
2022-08-17T03:10:31.331Z,22.56
2022-08-17T03:12:59.754Z,22.65
2022-08-17T03:15:35.020Z,22.71
2022-08-17T03:18:04.485Z,22.75
2022-08-17T03:20:37.093Z,22.75
2022-08-17T03:23:07.248Z,22.79
2022-08-17T03:28:23.014Z,22.93
2022-08-17T03:31:10.051Z,23.04
2022-08-17T03:36:53.646Z,23.19
2022-08-17T03:39:41.594Z,23.21
2022-08-17T03:42:37.756Z,23.26
2022-08-17T03:51:20.296Z,23.57
2022-08-17T03:54:15.964Z,23.72
2022-08-17T03:57:02.846Z,23.87
2022-08-17T03:59:34.013Z,24.04
2022-08-17T04:02:05.273Z,24.15
2022-08-17T04:09:51.796Z,24.40
2022-08-17T04:12:22.894Z,24.53
2022-08-17T04:14:53.401Z,24.58
2022-08-17T04:17:23.452Z,24.66
2022-08-17T04:19:51.844Z,24.74
2022-08-17T04:22:32.918Z,24.84
2022-08-17T04:25:08.324Z,25.04
2022-08-17T04:27:39.294Z,25.28
2022-08-17T04:30:09.649Z,25.54
2022-08-17T04:32:58.505Z,25.80
2022-08-17T04:36:03.668Z,25.99
2022-08-17T04:38:34.283Z,26.18
2022-08-17T04:41:22.363Z,26.24
2022-08-17T04:43:55.448Z,26.36
2022-08-17T04:46:24.571Z,26.38
2022-08-17T04:50:02.787Z,26.32
2022-08-17T04:52:43.223Z,26.38
2022-08-17T04:55:11.937Z,26.40
2022-08-17T04:57:44.519Z,26.48
2022-08-17T05:00:13.917Z,26.56
2022-08-17T05:02:49.921Z,26.70
2022-08-17T05:05:21.595Z,26.69
2022-08-17T05:07:50.011Z,26.67
2022-08-17T05:10:18.432Z,26.69
2022-08-17T05:12:46.792Z,26.65
2022-08-17T05:15:16.786Z,26.71
2022-08-17T05:17:48.388Z,26.79
2022-08-17T05:20:16.785Z,26.93
2022-08-17T05:22:51.533Z,27.03
2022-08-17T05:25:25.598Z,27.16
2022-08-17T05:27:55.349Z,27.25
2022-08-17T05:30:25.268Z,27.36
2022-08-17T05:32:55.434Z,27.45
2022-08-17T05:35:24.732Z,27.58
2022-08-17T05:38:00.808Z,27.63
2022-08-17T05:40:34.129Z,27.69
2022-08-17T05:43:06.613Z,27.64
2022-08-17T05:45:46.120Z,27.52
2022-08-17T05:48:35.522Z,27.58
2022-08-17T05:51:22.951Z,27.69
2022-08-17T05:53:58.217Z,27.65
2022-08-17T05:56:35.673Z,27.63
2022-08-17T05:59:06.927Z,27.58
2022-08-17T06:01:42.719Z,27.58
2022-08-17T06:04:28.626Z,27.54
2022-08-17T06:07:00.094Z,27.60
2022-08-17T06:13:15.858Z,27.91
2022-08-17T06:15:59.995Z,28.02
2022-08-17T06:18:40.785Z,28.09
2022-08-17T06:24:23.720Z,28.45
2022-08-17T06:26:53.983Z,28.62
2022-08-17T06:29:49.800Z,28.70
2022-08-17T06:35:31.888Z,28.86
2022-08-17T07:18:54.848Z,29.95
2022-08-17T07:25:10.005Z,30.09
2022-08-17T07:27:52.553Z,30.18
2022-08-17T07:30:23.723Z,30.34
2022-08-17T07:32:54.070Z,30.51
2022-08-17T07:41:12.191Z,30.50
2022-08-17T07:43:49.737Z,30.56
2022-08-17T07:46:38.151Z,30.50
2022-08-17T07:49:35.819Z,30.52
2022-08-17T07:52:47.456Z,30.54
2022-08-17T07:54:58.835Z,30.68
2022-08-17T07:57:37.150Z,30.62
2022-08-17T08:00:11.328Z,30.67
2022-08-17T08:02:46.753Z,30.77
2022-08-17T08:05:30.836Z,30.77
2022-08-17T08:08:23.097Z,30.78
2022-08-17T08:10:59.776Z,30.73
2022-08-17T08:13:29.483Z,30.74
2022-08-17T08:16:13.422Z,30.73
2022-08-17T08:18:55.842Z,30.70
2022-08-17T08:21:30.403Z,30.59
2022-08-17T08:24:18.143Z,30.63
2022-08-17T08:26:55.598Z,30.70
2022-08-17T08:29:29.871Z,30.66
2022-08-17T08:32:01.090Z,30.73
2022-08-17T08:34:47.392Z,30.91
2022-08-17T08:37:33.715Z,30.97
2022-08-17T08:40:12.261Z,30.96
2022-08-17T08:42:47.729Z,30.89
2022-08-17T08:45:21.878Z,30.82
2022-08-17T08:48:05.691Z,30.92
2022-08-17T08:50:43.451Z,31.01
2022-08-17T08:53:19.150Z,31.04
2022-08-17T08:55:54.253Z,31.10
2022-08-17T08:58:41.366Z,31.20
2022-08-17T09:01:18.293Z,31.25
2022-08-17T09:04:23.437Z,31.36
2022-08-17T09:06:59.969Z,31.43
2022-08-17T09:09:31.926Z,31.49
2022-08-17T09:12:07.116Z,31.55
2022-08-17T09:14:47.152Z,31.57
2022-08-17T09:17:19.755Z,31.45
2022-08-17T09:20:01.599Z,31.48
2022-08-17T09:22:34.302Z,31.49
2022-08-17T09:25:09.102Z,31.48
2022-08-17T09:27:48.422Z,31.39
2022-08-17T09:30:18.750Z,31.25
2022-08-17T09:32:52.585Z,31.56
2022-08-17T09:35:24.066Z,31.71
2022-08-17T09:37:57.787Z,31.87
2022-08-17T09:40:28.218Z,31.89
2022-08-17T09:43:02.719Z,31.83
2022-08-17T09:45:33.578Z,31.88
2022-08-17T09:48:05.244Z,31.95
2022-08-17T09:50:55.291Z,32.00
2022-08-17T09:53:33.310Z,32.05
2022-08-17T09:56:10.776Z,31.99
2022-08-17T09:58:48.845Z,31.98
2022-08-17T10:01:21.491Z,32.04
2022-08-17T10:03:59.505Z,32.14
2022-08-17T10:06:34.142Z,32.24
2022-08-17T10:09:08.593Z,32.46
2022-08-17T10:11:57.539Z,33.12
2022-08-17T10:14:36.692Z,33.93
2022-08-17T10:17:17.375Z,34.91
2022-08-17T10:19:51.184Z,35.75
2022-08-17T10:22:39.751Z,36.64
2022-08-17T10:25:48.543Z,37.77
2022-08-17T10:28:24.705Z,38.99
2022-08-17T10:33:56.184Z,40.25
2022-08-17T10:36:28.726Z,40.93
2022-08-17T10:39:04.733Z,41.52
2022-08-17T10:41:40.304Z,41.44
2022-08-17T10:44:37.015Z,41.98
2022-08-17T10:47:07.587Z,42.55
2022-08-17T10:49:45.451Z,43.18
2022-08-17T10:52:32.208Z,43.55
2022-08-17T10:55:16.793Z,43.85
2022-08-17T10:57:46.129Z,44.86
2022-08-17T11:00:16.506Z,45.24
2022-08-17T11:02:51.421Z,45.50
2022-08-17T11:05:29.319Z,45.98
2022-08-17T11:08:05.549Z,46.12
2022-08-17T11:10:52.241Z,46.61
2022-08-17T11:13:29.818Z,46.92
2022-08-17T11:16:08.980Z,47.28
2022-08-17T11:18:47.962Z,47.61
2022-08-17T11:21:30.444Z,47.87
2022-08-17T11:24:12.166Z,48.07
2022-08-17T11:26:46.322Z,48.49
2022-08-17T11:29:19.901Z,48.27
2022-08-17T11:32:03.842Z,48.39
2022-08-17T11:34:34.883Z,48.45
2022-08-17T11:37:13.159Z,48.08
2022-08-17T11:39:53.403Z,48.23
2022-08-17T11:42:29.599Z,48.19
2022-08-17T11:44:59.299Z,48.33
2022-08-17T11:48:23.860Z,48.17
2022-08-17T11:51:07.468Z,47.73
2022-08-17T11:54:31.832Z,48.26
2022-08-17T11:56:57.034Z,48.34
2022-08-17T11:59:44.085Z,48.53
2022-08-17T12:02:44.417Z,48.86
2022-08-17T12:05:34.284Z,49.38
2022-08-17T12:08:18.864Z,49.51
2022-08-17T12:10:53.645Z,48.87
2022-08-17T12:13:23.852Z,48.78
2022-08-17T12:15:59.487Z,48.52
2022-08-17T12:18:29.771Z,48.92
2022-08-17T12:21:15.738Z,49.25
2022-08-17T12:23:53.639Z,49.32
2022-08-17T12:26:23.475Z,49.21
2022-08-17T12:28:53.988Z,49.02
2022-08-17T12:31:24.810Z,48.66
2022-08-17T12:33:53.400Z,48.50
2022-08-17T12:36:24.714Z,48.69
2022-08-17T12:39:14.877Z,48.61
2022-08-17T12:41:50.819Z,48.77
2022-08-17T12:44:20.589Z,48.13
2022-08-17T12:46:51.459Z,47.21
2022-08-17T12:49:26.622Z,47.41
2022-08-17T12:51:58.504Z,47.60
2022-08-17T12:54:34.081Z,47.77
2022-08-17T12:57:05.629Z,47.82
2022-08-17T12:59:34.566Z,47.59
2022-08-17T13:02:02.886Z,47.66
2022-08-17T13:04:32.871Z,47.34
2022-08-17T13:07:01.398Z,47.22
2022-08-17T13:09:40.269Z,47.63
2022-08-17T13:12:11.435Z,48.08
2022-08-17T13:14:39.637Z,48.71
2022-08-17T13:17:12.844Z,49.23
2022-08-17T13:19:49.843Z,48.92
2022-08-17T13:22:19.824Z,49.25
2022-08-17T13:24:53.208Z,49.59
2022-08-17T13:27:23.789Z,49.69
2022-08-17T13:29:53.844Z,49.69
2022-08-17T13:32:33.553Z,49.70
2022-08-17T13:35:14.863Z,49.70
2022-08-17T13:37:57.983Z,49.89
2022-08-17T13:40:34.197Z,49.93
2022-08-17T13:43:04.508Z,49.42
2022-08-17T13:45:42.285Z,49.33
2022-08-17T13:48:14.841Z,49.38
2022-08-17T13:50:45.214Z,49.15
2022-08-17T13:53:17.770Z,49.37
2022-08-17T13:55:49.338Z,49.33
2022-08-17T13:58:24.082Z,49.31
2022-08-17T14:00:53.303Z,49.25
2022-08-17T14:03:22.183Z,49.01
2022-08-17T14:05:51.417Z,49.08
2022-08-17T14:08:21.819Z,49.09
2022-08-17T14:10:58.606Z,48.97
2022-08-17T14:13:29.057Z,49.08
2022-08-17T14:15:57.607Z,49.37
2022-08-17T14:18:55.228Z,48.64
2022-08-17T14:21:14.537Z,48.55
2022-08-17T14:23:49.979Z,48.55
2022-08-17T14:26:24.030Z,48.64
2022-08-17T14:28:54.482Z,48.58
2022-08-17T14:31:25.186Z,48.35
2022-08-17T14:33:53.497Z,48.07
2022-08-17T14:36:21.592Z,47.76
2022-08-17T14:38:49.693Z,47.62
2022-08-17T14:41:22.065Z,47.53
2022-08-17T14:43:50.813Z,47.31
2022-08-17T14:46:20.649Z,46.60
2022-08-17T14:48:52.721Z,46.35
2022-08-17T14:51:23.915Z,46.52
2022-08-17T14:53:52.291Z,46.68
2022-08-17T14:56:20.414Z,46.64
2022-08-17T14:58:49.407Z,46.65
2022-08-17T15:01:17.850Z,46.57
2022-08-17T15:03:47.848Z,46.30
2022-08-17T15:06:16.490Z,46.29
2022-08-17T15:08:44.739Z,46.17
2022-08-17T15:11:15.138Z,45.77
2022-08-17T15:13:52.875Z,45.68
2022-08-17T15:16:21.735Z,45.63
2022-08-17T15:18:52.842Z,45.63
2022-08-17T15:21:21.255Z,45.53
2022-08-17T15:23:49.357Z,45.27
2022-08-17T15:26:20.661Z,45.05
2022-08-17T15:28:54.346Z,44.78
2022-08-17T15:31:31.916Z,44.26
2022-08-17T15:34:02.336Z,43.94
2022-08-17T15:36:30.695Z,43.55
2022-08-17T15:38:59.220Z,42.14
2022-08-17T15:41:28.715Z,40.72
2022-08-17T15:43:57.684Z,39.22
2022-08-17T15:46:45.877Z,38.08
2022-08-17T15:49:16.224Z,37.18
2022-08-17T15:51:45.066Z,36.49
2022-08-17T15:54:22.544Z,35.79
2022-08-17T15:56:51.585Z,35.13
2022-08-17T15:59:21.849Z,34.58
2022-08-17T16:03:15.877Z,33.97
2022-08-17T16:04:44.364Z,33.42
2022-08-17T16:07:15.925Z,33.06
2022-08-17T16:12:21.154Z,32.48
2022-08-17T16:14:50.792Z,32.52
2022-08-17T16:17:40.204Z,32.76
2022-08-17T16:20:19.507Z,33.21
2022-08-17T16:22:50.201Z,33.50
2022-08-17T16:25:21.616Z,33.60
2022-08-17T16:27:53.858Z,33.62
2022-08-17T16:30:23.716Z,33.53
2022-08-17T16:32:53.342Z,33.33
2022-08-17T16:35:28.360Z,33.03
2022-08-17T16:38:00.894Z,32.84
2022-08-17T16:40:35.729Z,32.61
2022-08-17T16:43:07.784Z,32.35
2022-08-17T16:45:38.036Z,32.05
2022-08-17T16:48:06.518Z,31.68
2022-08-17T16:50:37.594Z,31.24
2022-08-17T16:53:11.512Z,30.85
2022-08-17T16:55:40.254Z,30.49
2022-08-17T16:58:11.234Z,30.16
2022-08-17T17:00:40.353Z,29.86
2022-08-17T17:03:19.409Z,29.61
2022-08-17T17:06:06.554Z,29.35
2022-08-17T17:08:45.995Z,29.10
2022-08-17T17:11:15.728Z,28.91
2022-08-17T17:13:47.434Z,28.73
2022-08-17T17:16:19.347Z,28.56
2022-08-17T17:18:56.426Z,28.39
2022-08-17T17:21:31.501Z,28.26
2022-08-17T17:24:04.202Z,28.14
2022-08-17T17:26:43.495Z,28.02
2022-08-17T17:29:28.528Z,27.91
2022-08-17T17:32:21.350Z,27.78
2022-08-17T17:37:43.227Z,27.64
2022-08-17T17:40:16.906Z,27.57
2022-08-17T17:42:45.348Z,27.47
2022-08-17T17:45:23.434Z,27.43
2022-08-17T17:47:52.623Z,27.35
2022-08-17T17:50:23.707Z,27.28
2022-08-17T17:53:00.149Z,27.22
2022-08-17T17:55:36.683Z,27.15
2022-08-17T17:58:10.452Z,27.11
2022-08-17T18:00:40.936Z,27.07
2022-08-17T18:03:15.452Z,27.04
2022-08-17T18:05:50.251Z,27.01
2022-08-17T18:08:32.333Z,26.95
2022-08-17T18:11:11.217Z,26.91
2022-08-17T18:13:44.105Z,26.84
2022-08-17T18:16:16.486Z,26.82
2022-08-17T18:18:50.599Z,26.77
2022-08-17T18:21:21.744Z,26.74
2022-08-17T18:23:53.682Z,26.72
2022-08-17T18:26:37.870Z,26.68
2022-08-17T18:29:14.588Z,26.62
2022-08-17T18:31:43.207Z,26.59
2022-08-17T18:37:16.152Z,26.51
2022-08-17T18:39:49.668Z,26.45
2022-08-17T18:42:26.021Z,26.42
2022-08-17T18:44:55.595Z,26.41
2022-08-17T18:47:26.671Z,26.40
2022-08-17T18:49:57.953Z,26.37
2022-08-17T18:52:27.922Z,26.40
2022-08-17T18:55:04.190Z,26.37
2022-08-17T18:57:34.881Z,26.34
2022-08-17T19:00:03.439Z,26.32
2022-08-17T19:02:45.275Z,26.29
2022-08-17T19:05:26.573Z,26.26
2022-08-17T19:07:54.908Z,26.24
2022-08-17T19:10:25.597Z,26.20
2022-08-17T19:13:01.118Z,26.17
2022-08-17T19:15:32.809Z,26.13
2022-08-17T19:18:03.926Z,26.10
2022-08-17T19:20:34.707Z,26.05
2022-08-17T19:23:14.719Z,26.01
2022-08-17T19:25:47.971Z,25.99
2022-08-17T19:28:24.227Z,25.98
2022-08-17T19:30:56.611Z,25.96
2022-08-17T19:33:26.166Z,25.93
2022-08-17T19:36:03.868Z,25.93
2022-08-17T19:38:39.708Z,25.89
2022-08-17T19:45:09.883Z,25.77
2022-08-17T19:47:54.843Z,25.72
2022-08-17T19:50:30.992Z,25.69
2022-08-17T19:53:03.623Z,25.66
2022-08-17T19:55:44.215Z,25.67
2022-08-17T19:58:17.980Z,25.67
2022-08-17T20:00:51.506Z,25.64
2022-08-17T20:03:22.780Z,25.61
2022-08-17T20:06:11.993Z,25.57
2022-08-17T20:08:43.044Z,25.52
2022-08-17T20:11:13.359Z,25.47
2022-08-17T20:13:43.695Z,25.42
2022-08-17T20:16:15.761Z,25.37
2022-08-17T20:18:48.012Z,25.32
2022-08-17T20:21:20.100Z,25.30
2022-08-17T20:23:54.043Z,25.26
2022-08-17T20:26:26.833Z,25.21
2022-08-17T20:29:10.432Z,25.19
2022-08-17T20:31:45.970Z,25.16
2022-08-17T20:34:36.743Z,25.13
2022-08-17T20:37:12.484Z,25.08
2022-08-17T20:39:52.178Z,25.04
2022-08-17T20:45:48.544Z,24.97
2022-08-17T20:48:37.525Z,24.95
2022-08-17T20:51:27.549Z,24.92
2022-08-17T20:54:27.775Z,24.92
2022-08-17T20:56:58.205Z,24.91
2022-08-17T20:59:46.645Z,24.90
2022-08-17T21:02:22.024Z,24.87
2022-08-17T21:05:04.115Z,24.87
2022-08-17T21:21:16.898Z,24.72
2022-08-17T21:23:57.123Z,24.66
2022-08-17T21:26:30.801Z,24.62
2022-08-17T21:29:14.711Z,24.57
2022-08-17T21:32:19.011Z,24.53
2022-08-17T21:35:04.335Z,24.48
2022-08-17T21:37:42.977Z,24.43
2022-08-17T21:40:25.540Z,24.39
2022-08-17T21:42:56.932Z,24.34
2022-08-17T21:45:29.052Z,24.29
2022-08-17T21:48:12.994Z,24.23
2022-08-17T21:50:43.127Z,24.20
2022-08-17T21:53:27.003Z,24.14
2022-08-17T21:55:58.976Z,24.06
2022-08-17T21:58:31.819Z,24.03
2022-08-17T22:01:27.772Z,23.99
2022-08-17T22:03:59.189Z,23.96
2022-08-17T22:06:28.747Z,23.92
2022-08-17T22:09:08.689Z,23.89
2022-08-17T22:11:52.800Z,23.90
2022-08-17T22:14:23.590Z,23.90
2022-08-17T22:17:08.271Z,23.85
2022-08-17T22:19:37.243Z,23.80
2022-08-17T22:22:07.427Z,23.75
2022-08-17T22:24:37.408Z,23.73
2022-08-17T22:27:08.436Z,23.72
2022-08-17T22:29:47.734Z,23.70
2022-08-17T22:32:31.541Z,23.67
2022-08-17T22:35:19.058Z,23.64
2022-08-17T22:37:47.746Z,23.62
2022-08-17T22:40:28.361Z,23.60
2022-08-17T22:42:58.341Z,23.59
2022-08-17T22:45:28.765Z,23.58
2022-08-17T22:47:57.696Z,23.57
2022-08-17T22:50:27.090Z,23.56
2022-08-17T22:53:17.443Z,23.56
2022-08-17T22:56:12.933Z,23.54
2022-08-17T22:59:02.088Z,23.51
2022-08-17T23:01:33.391Z,23.52
2022-08-17T23:04:03.669Z,23.51
2022-08-17T23:06:33.937Z,23.50
2022-08-17T23:09:04.309Z,23.50
2022-08-17T23:11:57.033Z,23.45
2022-08-17T23:14:31.959Z,23.38
2022-08-17T23:17:01.167Z,23.36
2022-08-17T23:19:31.861Z,23.35
2022-08-17T23:22:01.828Z,23.36
2022-08-17T23:24:33.271Z,23.35
2022-08-17T23:27:08.321Z,23.31
2022-08-17T23:29:42.222Z,23.28
2022-08-17T23:32:12.472Z,23.24
2022-08-17T23:34:42.747Z,23.22
2022-08-17T23:37:12.536Z,23.21
2022-08-17T23:39:41.673Z,23.17
2022-08-17T23:42:11.978Z,23.13
2022-08-17T23:44:43.833Z,23.09
2022-08-17T23:47:12.617Z,23.10
2022-08-17T23:49:41.605Z,23.10
2022-08-17T23:52:13.010Z,23.10
2022-08-17T23:54:46.742Z,23.14
2022-08-17T23:57:16.582Z,23.19
2022-08-17T23:59:47.050Z,23.20
